sensor_id;sensor_type;location;lat;lon;timestamp;P1;durP1;ratioP1;P2;durP2;ratioP2
10851;SDS011;5479;52.046;6.314;2023-05-07T00:01:00;16.57;;;13.90;;
10851;SDS011;5479;52.046;6.314;2023-05-07T00:03:29;16.13;;;14.63;;
10851;SDS011;5479;52.046;6.314;2023-05-07T00:05:57;17.13;;;15.43;;
10851;SDS011;5479;52.046;6.314;2023-05-07T00:08:25;15.57;;;13.93;;
10851;SDS011;5479;52.046;6.314;2023-05-07T00:10:53;15.87;;;14.27;;
10851;SDS011;5479;52.046;6.314;2023-05-07T00:13:22;17.57;;;15.83;;
10851;SDS011;5479;52.046;6.314;2023-05-07T00:15:50;17.80;;;16.00;;
10851;SDS011;5479;52.046;6.314;2023-05-07T00:18:18;16.90;;;15.20;;
10851;SDS011;5479;52.046;6.314;2023-05-07T00:20:48;16.47;;;14.90;;
10851;SDS011;5479;52.046;6.314;2023-05-07T00:23:16;16.73;;;15.13;;
10851;SDS011;5479;52.046;6.314;2023-05-07T00:25:44;17.63;;;15.90;;
10851;SDS011;5479;52.046;6.314;2023-05-07T00:28:12;17.67;;;16.00;;
10851;SDS011;5479;52.046;6.314;2023-05-07T00:30:41;17.43;;;15.70;;
10851;SDS011;5479;52.046;6.314;2023-05-07T00:33:09;18.27;;;16.47;;
10851;SDS011;5479;52.046;6.314;2023-05-07T00:35:37;17.83;;;15.93;;
10851;SDS011;5479;52.046;6.314;2023-05-07T00:38:05;18.37;;;16.47;;
10851;SDS011;5479;52.046;6.314;2023-05-07T00:40:33;18.43;;;16.57;;
10851;SDS011;5479;52.046;6.314;2023-05-07T00:43:01;17.77;;;16.03;;
10851;SDS011;5479;52.046;6.314;2023-05-07T00:45:30;18.10;;;16.30;;
10851;SDS011;5479;52.046;6.314;2023-05-07T00:48:00;17.87;;;16.17;;
10851;SDS011;5479;52.046;6.314;2023-05-07T00:50:29;17.53;;;15.83;;
10851;SDS011;5479;52.046;6.314;2023-05-07T00:52:58;17.90;;;16.20;;
10851;SDS011;5479;52.046;6.314;2023-05-07T00:55:27;19.47;;;17.57;;
10851;SDS011;5479;52.046;6.314;2023-05-07T00:57:56;18.97;;;17.07;;
10851;SDS011;5479;52.046;6.314;2023-05-07T01:00:24;18.17;;;16.37;;
10851;SDS011;5479;52.046;6.314;2023-05-07T01:02:52;17.13;;;15.40;;
10851;SDS011;5479;52.046;6.314;2023-05-07T01:05:21;16.70;;;15.20;;
10851;SDS011;5479;52.046;6.314;2023-05-07T01:07:51;17.20;;;15.50;;
10851;SDS011;5479;52.046;6.314;2023-05-07T01:10:21;16.93;;;15.33;;
10851;SDS011;5479;52.046;6.314;2023-05-07T01:12:49;17.43;;;15.63;;
10851;SDS011;5479;52.046;6.314;2023-05-07T01:15:18;17.20;;;15.47;;
10851;SDS011;5479;52.046;6.314;2023-05-07T01:17:46;18.93;;;15.83;;
10851;SDS011;5479;52.046;6.314;2023-05-07T01:20:14;17.53;;;15.80;;
10851;SDS011;5479;52.046;6.314;2023-05-07T01:22:44;16.23;;;14.53;;
10851;SDS011;5479;52.046;6.314;2023-05-07T01:25:14;18.63;;;16.83;;
10851;SDS011;5479;52.046;6.314;2023-05-07T01:27:43;19.07;;;17.07;;
10851;SDS011;5479;52.046;6.314;2023-05-07T01:30:11;18.73;;;16.93;;
10851;SDS011;5479;52.046;6.314;2023-05-07T01:32:41;19.63;;;17.70;;
10851;SDS011;5479;52.046;6.314;2023-05-07T01:35:11;20.87;;;18.70;;
10851;SDS011;5479;52.046;6.314;2023-05-07T01:37:44;19.87;;;17.87;;
10851;SDS011;5479;52.046;6.314;2023-05-07T01:40:13;21.50;;;19.17;;
10851;SDS011;5479;52.046;6.314;2023-05-07T01:42:42;20.70;;;18.70;;
10851;SDS011;5479;52.046;6.314;2023-05-07T01:45:11;21.17;;;19.13;;
10851;SDS011;5479;52.046;6.314;2023-05-07T01:47:39;22.07;;;19.87;;
10851;SDS011;5479;52.046;6.314;2023-05-07T01:50:07;22.67;;;20.57;;
10851;SDS011;5479;52.046;6.314;2023-05-07T01:52:37;23.53;;;21.13;;
10851;SDS011;5479;52.046;6.314;2023-05-07T01:55:08;22.90;;;20.70;;
10851;SDS011;5479;52.046;6.314;2023-05-07T01:57:36;23.00;;;20.80;;
10851;SDS011;5479;52.046;6.314;2023-05-07T02:00:04;21.73;;;19.73;;
10851;SDS011;5479;52.046;6.314;2023-05-07T02:02:35;22.90;;;20.80;;
10851;SDS011;5479;52.046;6.314;2023-05-07T02:05:04;23.07;;;20.97;;
10851;SDS011;5479;52.046;6.314;2023-05-07T02:07:33;23.43;;;21.03;;
10851;SDS011;5479;52.046;6.314;2023-05-07T02:10:01;23.50;;;21.20;;
10851;SDS011;5479;52.046;6.314;2023-05-07T02:12:30;22.13;;;20.13;;
10851;SDS011;5479;52.046;6.314;2023-05-07T02:14:58;23.47;;;21.27;;
10851;SDS011;5479;52.046;6.314;2023-05-07T02:17:26;23.03;;;20.83;;
10851;SDS011;5479;52.046;6.314;2023-05-07T02:19:58;21.17;;;19.27;;
10851;SDS011;5479;52.046;6.314;2023-05-07T02:22:26;22.47;;;20.37;;
10851;SDS011;5479;52.046;6.314;2023-05-07T02:24:53;21.47;;;19.43;;
10851;SDS011;5479;52.046;6.314;2023-05-07T02:27:21;21.13;;;19.17;;
10851;SDS011;5479;52.046;6.314;2023-05-07T02:29:51;20.57;;;18.77;;
10851;SDS011;5479;52.046;6.314;2023-05-07T02:32:19;21.93;;;19.83;;
10851;SDS011;5479;52.046;6.314;2023-05-07T02:34:49;21.17;;;19.23;;
10851;SDS011;5479;52.046;6.314;2023-05-07T02:37:17;21.70;;;19.70;;
10851;SDS011;5479;52.046;6.314;2023-05-07T02:39:45;22.43;;;20.27;;
10851;SDS011;5479;52.046;6.314;2023-05-07T02:42:13;22.57;;;20.47;;
10851;SDS011;5479;52.046;6.314;2023-05-07T02:44:41;21.37;;;19.37;;
10851;SDS011;5479;52.046;6.314;2023-05-07T02:47:10;21.47;;;19.57;;
10851;SDS011;5479;52.046;6.314;2023-05-07T02:49:39;22.93;;;20.73;;
10851;SDS011;5479;52.046;6.314;2023-05-07T02:52:07;22.63;;;20.63;;
10851;SDS011;5479;52.046;6.314;2023-05-07T02:54:35;23.10;;;20.90;;
10851;SDS011;5479;52.046;6.314;2023-05-07T02:57:03;22.13;;;20.17;;
10851;SDS011;5479;52.046;6.314;2023-05-07T02:59:31;22.93;;;20.73;;
10851;SDS011;5479;52.046;6.314;2023-05-07T03:01:59;23.43;;;21.23;;
10851;SDS011;5479;52.046;6.314;2023-05-07T03:04:29;22.40;;;20.40;;
10851;SDS011;5479;52.046;6.314;2023-05-07T03:06:57;23.13;;;20.93;;
10851;SDS011;5479;52.046;6.314;2023-05-07T03:09:25;24.13;;;21.93;;
10851;SDS011;5479;52.046;6.314;2023-05-07T03:11:53;24.37;;;22.07;;
10851;SDS011;5479;52.046;6.314;2023-05-07T03:14:22;24.20;;;21.93;;
10851;SDS011;5479;52.046;6.314;2023-05-07T03:16:50;23.67;;;21.47;;
10851;SDS011;5479;52.046;6.314;2023-05-07T03:19:18;23.93;;;21.63;;
10851;SDS011;5479;52.046;6.314;2023-05-07T03:21:47;24.07;;;21.57;;
10851;SDS011;5479;52.046;6.314;2023-05-07T03:24:15;23.90;;;21.50;;
10851;SDS011;5479;52.046;6.314;2023-05-07T03:26:43;24.70;;;22.23;;
10851;SDS011;5479;52.046;6.314;2023-05-07T03:29:11;23.97;;;21.70;;
10851;SDS011;5479;52.046;6.314;2023-05-07T03:31:38;24.37;;;22.10;;
10851;SDS011;5479;52.046;6.314;2023-05-07T03:34:06;24.27;;;21.93;;
10851;SDS011;5479;52.046;6.314;2023-05-07T03:36:34;25.60;;;23.17;;
10851;SDS011;5479;52.046;6.314;2023-05-07T03:39:04;25.50;;;23.00;;
10851;SDS011;5479;52.046;6.314;2023-05-07T03:41:32;25.23;;;22.83;;
10851;SDS011;5479;52.046;6.314;2023-05-07T03:44:00;25.83;;;23.37;;
10851;SDS011;5479;52.046;6.314;2023-05-07T03:46:28;26.97;;;24.37;;
10851;SDS011;5479;52.046;6.314;2023-05-07T03:48:56;26.20;;;23.47;;
10851;SDS011;5479;52.046;6.314;2023-05-07T03:51:24;26.20;;;23.60;;
10851;SDS011;5479;52.046;6.314;2023-05-07T03:53:53;26.23;;;23.73;;
10851;SDS011;5479;52.046;6.314;2023-05-07T03:56:24;26.23;;;23.73;;
10851;SDS011;5479;52.046;6.314;2023-05-07T03:58:54;25.80;;;23.30;;
10851;SDS011;5479;52.046;6.314;2023-05-07T04:01:22;27.17;;;24.57;;
10851;SDS011;5479;52.046;6.314;2023-05-07T04:03:49;27.77;;;24.97;;
10851;SDS011;5479;52.046;6.314;2023-05-07T04:06:17;26.33;;;23.80;;
10851;SDS011;5479;52.046;6.314;2023-05-07T04:08:45;26.03;;;23.63;;
10851;SDS011;5479;52.046;6.314;2023-05-07T04:11:13;28.07;;;25.37;;
10851;SDS011;5479;52.046;6.314;2023-05-07T04:13:43;28.03;;;25.30;;
10851;SDS011;5479;52.046;6.314;2023-05-07T04:16:11;27.50;;;24.87;;
10851;SDS011;5479;52.046;6.314;2023-05-07T04:18:39;28.10;;;25.40;;
10851;SDS011;5479;52.046;6.314;2023-05-07T04:21:13;28.17;;;25.37;;
10851;SDS011;5479;52.046;6.314;2023-05-07T04:23:42;26.77;;;24.27;;
10851;SDS011;5479;52.046;6.314;2023-05-07T04:26:10;27.40;;;24.70;;
10851;SDS011;5479;52.046;6.314;2023-05-07T04:28:38;26.27;;;23.77;;
10851;SDS011;5479;52.046;6.314;2023-05-07T04:31:07;26.73;;;24.23;;
10851;SDS011;5479;52.046;6.314;2023-05-07T04:33:35;27.23;;;24.60;;
10851;SDS011;5479;52.046;6.314;2023-05-07T04:36:04;28.10;;;25.47;;
10851;SDS011;5479;52.046;6.314;2023-05-07T04:38:32;27.90;;;25.30;;
10851;SDS011;5479;52.046;6.314;2023-05-07T04:41:02;28.20;;;25.70;;
10851;SDS011;5479;52.046;6.314;2023-05-07T04:43:31;27.87;;;25.27;;
10851;SDS011;5479;52.046;6.314;2023-05-07T04:45:59;28.77;;;26.00;;
10851;SDS011;5479;52.046;6.314;2023-05-07T04:48:29;28.20;;;25.60;;
10851;SDS011;5479;52.046;6.314;2023-05-07T04:50:57;28.17;;;25.47;;
10851;SDS011;5479;52.046;6.314;2023-05-07T04:53:25;27.93;;;25.43;;
10851;SDS011;5479;52.046;6.314;2023-05-07T04:55:56;28.87;;;26.17;;
10851;SDS011;5479;52.046;6.314;2023-05-07T04:58:23;27.73;;;25.13;;
10851;SDS011;5479;52.046;6.314;2023-05-07T05:00:51;27.53;;;24.73;;
10851;SDS011;5479;52.046;6.314;2023-05-07T05:03:19;27.53;;;24.87;;
10851;SDS011;5479;52.046;6.314;2023-05-07T05:05:50;26.90;;;24.20;;
10851;SDS011;5479;52.046;6.314;2023-05-07T05:08:20;27.90;;;25.10;;
10851;SDS011;5479;52.046;6.314;2023-05-07T05:10:47;28.17;;;25.57;;
10851;SDS011;5479;52.046;6.314;2023-05-07T05:13:16;26.13;;;23.73;;
10851;SDS011;5479;52.046;6.314;2023-05-07T05:15:44;26.63;;;24.13;;
10851;SDS011;5479;52.046;6.314;2023-05-07T05:18:12;26.03;;;23.47;;
10851;SDS011;5479;52.046;6.314;2023-05-07T05:20:40;26.23;;;23.73;;
10851;SDS011;5479;52.046;6.314;2023-05-07T05:23:09;26.53;;;24.10;;
10851;SDS011;5479;52.046;6.314;2023-05-07T05:25:37;26.10;;;23.40;;
10851;SDS011;5479;52.046;6.314;2023-05-07T05:28:06;26.27;;;23.73;;
10851;SDS011;5479;52.046;6.314;2023-05-07T05:30:34;26.20;;;23.60;;
10851;SDS011;5479;52.046;6.314;2023-05-07T05:33:03;26.27;;;23.47;;
10851;SDS011;5479;52.046;6.314;2023-05-07T05:35:31;24.97;;;22.50;;
10851;SDS011;5479;52.046;6.314;2023-05-07T05:38:01;24.80;;;22.37;;
10851;SDS011;5479;52.046;6.314;2023-05-07T05:40:32;25.27;;;22.77;;
10851;SDS011;5479;52.046;6.314;2023-05-07T05:43:00;25.07;;;22.67;;
10851;SDS011;5479;52.046;6.314;2023-05-07T05:45:29;24.37;;;22.13;;
10851;SDS011;5479;52.046;6.314;2023-05-07T05:47:57;25.00;;;22.57;;
10851;SDS011;5479;52.046;6.314;2023-05-07T05:50:25;23.50;;;21.13;;
10851;SDS011;5479;52.046;6.314;2023-05-07T05:52:53;25.37;;;22.80;;
10851;SDS011;5479;52.046;6.314;2023-05-07T05:55:21;24.53;;;22.23;;
10851;SDS011;5479;52.046;6.314;2023-05-07T05:57:50;24.33;;;21.90;;
10851;SDS011;5479;52.046;6.314;2023-05-07T06:00:18;24.17;;;21.60;;
10851;SDS011;5479;52.046;6.314;2023-05-07T06:02:48;23.20;;;20.90;;
10851;SDS011;5479;52.046;6.314;2023-05-07T06:05:16;23.10;;;20.80;;
10851;SDS011;5479;52.046;6.314;2023-05-07T06:07:44;23.07;;;20.63;;
10851;SDS011;5479;52.046;6.314;2023-05-07T06:10:12;23.00;;;20.37;;
10851;SDS011;5479;52.046;6.314;2023-05-07T06:12:40;24.03;;;21.63;;
10851;SDS011;5479;52.046;6.314;2023-05-07T06:15:10;23.30;;;20.90;;
10851;SDS011;5479;52.046;6.314;2023-05-07T06:17:38;23.63;;;21.13;;
10851;SDS011;5479;52.046;6.314;2023-05-07T06:20:07;23.07;;;20.57;;
10851;SDS011;5479;52.046;6.314;2023-05-07T06:22:35;22.17;;;19.83;;
10851;SDS011;5479;52.046;6.314;2023-05-07T06:25:04;21.87;;;19.67;;
10851;SDS011;5479;52.046;6.314;2023-05-07T06:27:32;21.60;;;19.33;;
10851;SDS011;5479;52.046;6.314;2023-05-07T06:30:00;20.70;;;18.60;;
10851;SDS011;5479;52.046;6.314;2023-05-07T06:32:30;22.43;;;20.07;;
10851;SDS011;5479;52.046;6.314;2023-05-07T06:34:58;22.30;;;19.73;;
10851;SDS011;5479;52.046;6.314;2023-05-07T06:37:26;21.57;;;19.43;;
10851;SDS011;5479;52.046;6.314;2023-05-07T06:39:54;20.40;;;18.17;;
10851;SDS011;5479;52.046;6.314;2023-05-07T06:42:22;23.57;;;19.87;;
10851;SDS011;5479;52.046;6.314;2023-05-07T06:44:50;21.47;;;19.20;;
10851;SDS011;5479;52.046;6.314;2023-05-07T06:47:18;21.10;;;18.90;;
10851;SDS011;5479;52.046;6.314;2023-05-07T06:49:47;22.10;;;19.80;;
10851;SDS011;5479;52.046;6.314;2023-05-07T06:52:15;21.93;;;19.70;;
10851;SDS011;5479;52.046;6.314;2023-05-07T06:54:43;21.87;;;19.67;;
10851;SDS011;5479;52.046;6.314;2023-05-07T06:57:10;21.47;;;19.17;;
10851;SDS011;5479;52.046;6.314;2023-05-07T06:59:38;22.20;;;19.90;;
10851;SDS011;5479;52.046;6.314;2023-05-07T07:02:06;21.47;;;19.27;;
10851;SDS011;5479;52.046;6.314;2023-05-07T07:04:34;21.87;;;19.67;;
10851;SDS011;5479;52.046;6.314;2023-05-07T07:07:04;22.07;;;19.87;;
10851;SDS011;5479;52.046;6.314;2023-05-07T07:09:32;22.93;;;20.53;;
10851;SDS011;5479;52.046;6.314;2023-05-07T07:12:00;21.37;;;19.20;;
10851;SDS011;5479;52.046;6.314;2023-05-07T07:14:28;23.50;;;21.10;;
10851;SDS011;5479;52.046;6.314;2023-05-07T07:16:56;20.63;;;18.53;;
10851;SDS011;5479;52.046;6.314;2023-05-07T07:19:25;21.20;;;18.97;;
10851;SDS011;5479;52.046;6.314;2023-05-07T07:21:53;22.67;;;20.00;;
10851;SDS011;5479;52.046;6.314;2023-05-07T07:24:22;21.10;;;18.77;;
10851;SDS011;5479;52.046;6.314;2023-05-07T07:26:50;21.73;;;18.90;;
10851;SDS011;5479;52.046;6.314;2023-05-07T07:29:18;20.87;;;18.73;;
10851;SDS011;5479;52.046;6.314;2023-05-07T07:31:47;21.90;;;19.60;;
10851;SDS011;5479;52.046;6.314;2023-05-07T07:34:16;20.87;;;18.77;;
10851;SDS011;5479;52.046;6.314;2023-05-07T07:36:44;20.97;;;18.83;;
10851;SDS011;5479;52.046;6.314;2023-05-07T07:39:12;21.03;;;18.87;;
10851;SDS011;5479;52.046;6.314;2023-05-07T07:41:41;20.13;;;17.97;;
10851;SDS011;5479;52.046;6.314;2023-05-07T07:44:09;20.20;;;18.23;;
10851;SDS011;5479;52.046;6.314;2023-05-07T07:46:39;21.57;;;19.27;;
10851;SDS011;5479;52.046;6.314;2023-05-07T07:49:07;20.00;;;18.17;;
10851;SDS011;5479;52.046;6.314;2023-05-07T07:51:34;20.87;;;18.77;;
10851;SDS011;5479;52.046;6.314;2023-05-07T07:54:03;20.53;;;18.43;;
10851;SDS011;5479;52.046;6.314;2023-05-07T07:56:31;20.70;;;18.67;;
10851;SDS011;5479;52.046;6.314;2023-05-07T07:59:02;19.87;;;17.87;;
10851;SDS011;5479;52.046;6.314;2023-05-07T08:01:30;20.33;;;18.23;;
10851;SDS011;5479;52.046;6.314;2023-05-07T08:03:58;19.57;;;17.67;;
10851;SDS011;5479;52.046;6.314;2023-05-07T08:06:26;19.63;;;17.40;;
10851;SDS011;5479;52.046;6.314;2023-05-07T08:08:54;18.70;;;16.90;;
10851;SDS011;5479;52.046;6.314;2023-05-07T08:11:22;18.80;;;16.57;;
10851;SDS011;5479;52.046;6.314;2023-05-07T08:13:50;19.40;;;17.40;;
10851;SDS011;5479;52.046;6.314;2023-05-07T08:16:20;19.87;;;17.97;;
10851;SDS011;5479;52.046;6.314;2023-05-07T08:18:49;18.67;;;16.77;;
10851;SDS011;5479;52.046;6.314;2023-05-07T08:21:19;19.43;;;17.53;;
10851;SDS011;5479;52.046;6.314;2023-05-07T08:23:47;18.25;;;16.40;;
10851;SDS011;5479;52.046;6.314;2023-05-07T08:28:14;18.67;;;16.67;;
10851;SDS011;5479;52.046;6.314;2023-05-07T08:30:42;18.27;;;16.50;;
10851;SDS011;5479;52.046;6.314;2023-05-07T08:33:10;18.77;;;16.88;;
10851;SDS011;5479;52.046;6.314;2023-05-07T08:35:38;17.85;;;16.15;;
10851;SDS011;5479;52.046;6.314;2023-05-07T08:38:06;18.58;;;16.67;;
10851;SDS011;5479;52.046;6.314;2023-05-07T08:40:36;17.92;;;16.17;;
10851;SDS011;5479;52.046;6.314;2023-05-07T08:43:05;18.58;;;16.77;;
10851;SDS011;5479;52.046;6.314;2023-05-07T08:45:35;18.42;;;16.52;;
10851;SDS011;5479;52.046;6.314;2023-05-07T08:48:08;17.02;;;15.30;;
10851;SDS011;5479;52.046;6.314;2023-05-07T08:50:41;17.13;;;15.50;;
10851;SDS011;5479;52.046;6.314;2023-05-07T08:53:13;17.13;;;15.48;;
10851;SDS011;5479;52.046;6.314;2023-05-07T08:55:44;17.48;;;15.68;;
10851;SDS011;5479;52.046;6.314;2023-05-07T08:58:13;17.65;;;15.82;;
10851;SDS011;5479;52.046;6.314;2023-05-07T09:00:42;17.98;;;16.08;;
10851;SDS011;5479;52.046;6.314;2023-05-07T09:03:10;16.30;;;14.70;;
10851;SDS011;5479;52.046;6.314;2023-05-07T09:05:40;18.23;;;16.45;;
10851;SDS011;5479;52.046;6.314;2023-05-07T09:08:07;17.65;;;15.98;;
10851;SDS011;5479;52.046;6.314;2023-05-07T09:10:35;17.08;;;15.48;;
10851;SDS011;5479;52.046;6.314;2023-05-07T09:13:03;17.30;;;15.50;;
10851;SDS011;5479;52.046;6.314;2023-05-07T09:15:31;17.80;;;15.93;;
10851;SDS011;5479;52.046;6.314;2023-05-07T09:18:00;18.30;;;16.35;;
10851;SDS011;5479;52.046;6.314;2023-05-07T09:20:30;17.48;;;15.75;;
10851;SDS011;5479;52.046;6.314;2023-05-07T09:22:58;17.13;;;15.43;;
10851;SDS011;5479;52.046;6.314;2023-05-07T09:25:29;16.25;;;14.60;;
10851;SDS011;5479;52.046;6.314;2023-05-07T09:27:57;16.73;;;15.23;;
10851;SDS011;5479;52.046;6.314;2023-05-07T09:30:27;16.00;;;14.40;;
10851;SDS011;5479;52.046;6.314;2023-05-07T09:32:57;17.00;;;15.40;;
10851;SDS011;5479;52.046;6.314;2023-05-07T09:35:30;16.73;;;15.13;;
10851;SDS011;5479;52.046;6.314;2023-05-07T09:37:58;16.08;;;14.50;;
10851;SDS011;5479;52.046;6.314;2023-05-07T09:40:27;15.95;;;14.45;;
10851;SDS011;5479;52.046;6.314;2023-05-07T09:43:07;14.38;;;13.02;;
10851;SDS011;5479;52.046;6.314;2023-05-07T09:45:36;15.70;;;14.30;;
10851;SDS011;5479;52.046;6.314;2023-05-07T09:48:05;15.57;;;14.07;;
10851;SDS011;5479;52.046;6.314;2023-05-07T09:50:36;16.75;;;15.25;;
10851;SDS011;5479;52.046;6.314;2023-05-07T09:53:15;15.20;;;13.65;;
10851;SDS011;5479;52.046;6.314;2023-05-07T09:55:44;14.38;;;12.88;;
10851;SDS011;5479;52.046;6.314;2023-05-07T09:58:12;16.00;;;14.48;;
10851;SDS011;5479;52.046;6.314;2023-05-07T10:00:42;16.42;;;14.82;;
10851;SDS011;5479;52.046;6.314;2023-05-07T10:03:11;16.98;;;15.30;;
10851;SDS011;5479;52.046;6.314;2023-05-07T10:05:41;16.15;;;14.57;;
10851;SDS011;5479;52.046;6.314;2023-05-07T10:08:10;16.92;;;15.32;;
10851;SDS011;5479;52.046;6.314;2023-05-07T10:10:39;15.85;;;14.32;;
10851;SDS011;5479;52.046;6.314;2023-05-07T10:13:07;15.25;;;13.75;;
10851;SDS011;5479;52.046;6.314;2023-05-07T10:15:37;14.23;;;12.82;;
10851;SDS011;5479;52.046;6.314;2023-05-07T10:18:05;17.00;;;15.23;;
10851;SDS011;5479;52.046;6.314;2023-05-07T10:20:34;16.45;;;14.85;;
10851;SDS011;5479;52.046;6.314;2023-05-07T10:23:06;16.42;;;14.93;;
10851;SDS011;5479;52.046;6.314;2023-05-07T10:25:40;15.15;;;13.65;;
10851;SDS011;5479;52.046;6.314;2023-05-07T10:28:08;15.32;;;13.63;;
10851;SDS011;5479;52.046;6.314;2023-05-07T10:30:40;16.23;;;14.63;;
10851;SDS011;5479;52.046;6.314;2023-05-07T10:33:23;15.77;;;14.25;;
10851;SDS011;5479;52.046;6.314;2023-05-07T10:35:55;14.77;;;13.38;;
10851;SDS011;5479;52.046;6.314;2023-05-07T10:38:28;16.33;;;14.63;;
10851;SDS011;5479;52.046;6.314;2023-05-07T10:40:56;15.73;;;14.13;;
10851;SDS011;5479;52.046;6.314;2023-05-07T10:43:25;15.68;;;13.90;;
10851;SDS011;5479;52.046;6.314;2023-05-07T10:46:09;15.93;;;13.80;;
10851;SDS011;5479;52.046;6.314;2023-05-07T10:51:34;15.57;;;14.07;;
10851;SDS011;5479;52.046;6.314;2023-05-07T10:54:19;23.70;;;17.08;;
10851;SDS011;5479;52.046;6.314;2023-05-07T10:56:48;14.77;;;12.63;;
10851;SDS011;5479;52.046;6.314;2023-05-07T10:59:33;12.98;;;11.55;;
10851;SDS011;5479;52.046;6.314;2023-05-07T11:02:08;13.95;;;12.45;;
10851;SDS011;5479;52.046;6.314;2023-05-07T11:04:37;13.85;;;12.52;;
10851;SDS011;5479;52.046;6.314;2023-05-07T11:07:27;12.45;;;11.15;;
10851;SDS011;5479;52.046;6.314;2023-05-07T11:09:59;11.77;;;10.60;;
10851;SDS011;5479;52.046;6.314;2023-05-07T11:15:40;14.52;;;13.00;;
10851;SDS011;5479;52.046;6.314;2023-05-07T11:18:11;12.88;;;11.48;;
10851;SDS011;5479;52.046;6.314;2023-05-07T11:20:54;13.27;;;11.88;;
10851;SDS011;5479;52.046;6.314;2023-05-07T11:26:32;12.45;;;11.23;;
10851;SDS011;5479;52.046;6.314;2023-05-07T11:29:19;13.20;;;11.90;;
10851;SDS011;5479;52.046;6.314;2023-05-07T11:31:49;12.10;;;10.00;;
10851;SDS011;5479;52.046;6.314;2023-05-07T11:34:21;13.13;;;11.73;;
10851;SDS011;5479;52.046;6.314;2023-05-07T11:36:50;12.95;;;11.65;;
10851;SDS011;5479;52.046;6.314;2023-05-07T11:39:25;12.65;;;11.32;;
10851;SDS011;5479;52.046;6.314;2023-05-07T11:41:57;12.45;;;10.77;;
10851;SDS011;5479;52.046;6.314;2023-05-07T11:44:25;14.23;;;12.25;;
10851;SDS011;5479;52.046;6.314;2023-05-07T11:46:53;12.95;;;11.65;;
10851;SDS011;5479;52.046;6.314;2023-05-07T11:49:25;13.13;;;11.75;;
10851;SDS011;5479;52.046;6.314;2023-05-07T11:51:57;12.75;;;11.45;;
10851;SDS011;5479;52.046;6.314;2023-05-07T11:54:25;13.40;;;12.00;;
10851;SDS011;5479;52.046;6.314;2023-05-07T11:56:53;14.05;;;12.52;;
10851;SDS011;5479;52.046;6.314;2023-05-07T11:59:25;13.95;;;12.50;;
10851;SDS011;5479;52.046;6.314;2023-05-07T12:01:55;13.45;;;12.05;;
10851;SDS011;5479;52.046;6.314;2023-05-07T12:04:28;12.68;;;11.38;;
10851;SDS011;5479;52.046;6.314;2023-05-07T12:06:58;13.32;;;9.80;;
10851;SDS011;5479;52.046;6.314;2023-05-07T12:09:29;10.13;;;8.27;;
10851;SDS011;5479;52.046;6.314;2023-05-07T12:12:10;11.15;;;9.90;;
10851;SDS011;5479;52.046;6.314;2023-05-07T12:14:42;10.88;;;8.93;;
10851;SDS011;5479;52.046;6.314;2023-05-07T12:17:11;11.88;;;10.77;;
10851;SDS011;5479;52.046;6.314;2023-05-07T12:19:41;14.63;;;13.10;;
10851;SDS011;5479;52.046;6.314;2023-05-07T12:22:19;13.57;;;12.18;;
10851;SDS011;5479;52.046;6.314;2023-05-07T12:24:56;14.57;;;13.05;;
10851;SDS011;5479;52.046;6.314;2023-05-07T12:27:26;14.90;;;13.43;;
10851;SDS011;5479;52.046;6.314;2023-05-07T12:29:54;13.98;;;12.48;;
10851;SDS011;5479;52.046;6.314;2023-05-07T12:32:25;12.23;;;10.93;;
10851;SDS011;5479;52.046;6.314;2023-05-07T12:34:56;12.68;;;11.43;;
10851;SDS011;5479;52.046;6.314;2023-05-07T12:37:30;13.35;;;11.40;;
10851;SDS011;5479;52.046;6.314;2023-05-07T12:40:05;13.48;;;11.55;;
10851;SDS011;5479;52.046;6.314;2023-05-07T12:42:36;12.52;;;11.02;;
10851;SDS011;5479;52.046;6.314;2023-05-07T12:45:09;12.02;;;9.85;;
10851;SDS011;5479;52.046;6.314;2023-05-07T12:47:37;14.27;;;12.77;;
10851;SDS011;5479;52.046;6.314;2023-05-07T12:50:11;14.50;;;12.95;;
10851;SDS011;5479;52.046;6.314;2023-05-07T12:52:44;13.52;;;12.10;;
10851;SDS011;5479;52.046;6.314;2023-05-07T12:55:14;12.20;;;10.98;;
10851;SDS011;5479;52.046;6.314;2023-05-07T12:57:48;12.63;;;11.15;;
10851;SDS011;5479;52.046;6.314;2023-05-07T13:00:17;12.48;;;11.05;;
10851;SDS011;5479;52.046;6.314;2023-05-07T13:03:00;12.10;;;10.70;;
10851;SDS011;5479;52.046;6.314;2023-05-07T13:05:34;12.63;;;11.25;;
10851;SDS011;5479;52.046;6.314;2023-05-07T13:08:03;12.25;;;10.73;;
10851;SDS011;5479;52.046;6.314;2023-05-07T13:10:31;12.70;;;10.02;;
10851;SDS011;5479;52.046;6.314;2023-05-07T13:13:02;12.48;;;11.18;;
10851;SDS011;5479;52.046;6.314;2023-05-07T13:15:30;11.70;;;10.02;;
10851;SDS011;5479;52.046;6.314;2023-05-07T13:17:59;12.43;;;11.13;;
10851;SDS011;5479;52.046;6.314;2023-05-07T13:20:27;11.52;;;10.23;;
10851;SDS011;5479;52.046;6.314;2023-05-07T13:22:56;12.95;;;11.65;;
10851;SDS011;5479;52.046;6.314;2023-05-07T13:25:27;14.80;;;12.43;;
10851;SDS011;5479;52.046;6.314;2023-05-07T13:27:57;14.43;;;13.02;;
10851;SDS011;5479;52.046;6.314;2023-05-07T13:30:26;14.23;;;12.82;;
10851;SDS011;5479;52.046;6.314;2023-05-07T13:32:56;13.52;;;12.13;;
10851;SDS011;5479;52.046;6.314;2023-05-07T13:35:25;13.25;;;11.77;;
10851;SDS011;5479;52.046;6.314;2023-05-07T13:37:56;12.30;;;11.10;;
10851;SDS011;5479;52.046;6.314;2023-05-07T13:40:24;14.05;;;12.65;;
10851;SDS011;5479;52.046;6.314;2023-05-07T13:42:56;13.00;;;11.63;;
10851;SDS011;5479;52.046;6.314;2023-05-07T13:45:30;14.65;;;12.55;;
10851;SDS011;5479;52.046;6.314;2023-05-07T13:47:59;12.88;;;11.57;;
10851;SDS011;5479;52.046;6.314;2023-05-07T13:50:29;13.70;;;12.07;;
10851;SDS011;5479;52.046;6.314;2023-05-07T13:53:02;12.90;;;11.55;;
10851;SDS011;5479;52.046;6.314;2023-05-07T13:55:37;12.00;;;10.80;;
10851;SDS011;5479;52.046;6.314;2023-05-07T13:58:05;12.25;;;10.98;;
10851;SDS011;5479;52.046;6.314;2023-05-07T14:00:34;12.63;;;11.32;;
10851;SDS011;5479;52.046;6.314;2023-05-07T14:03:05;11.38;;;10.15;;
10851;SDS011;5479;52.046;6.314;2023-05-07T14:05:35;11.65;;;10.45;;
10851;SDS011;5479;52.046;6.314;2023-05-07T14:08:08;12.80;;;11.50;;
10851;SDS011;5479;52.046;6.314;2023-05-07T14:10:39;12.70;;;10.77;;
10851;SDS011;5479;52.046;6.314;2023-05-07T14:13:20;12.05;;;10.82;;
10851;SDS011;5479;52.046;6.314;2023-05-07T14:15:59;13.07;;;11.40;;
10851;SDS011;5479;52.046;6.314;2023-05-07T14:18:27;13.27;;;11.85;;
10851;SDS011;5479;52.046;6.314;2023-05-07T14:20:56;14.65;;;11.73;;
10851;SDS011;5479;52.046;6.314;2023-05-07T14:23:24;12.50;;;11.07;;
10851;SDS011;5479;52.046;6.314;2023-05-07T14:25:56;12.82;;;11.38;;
10851;SDS011;5479;52.046;6.314;2023-05-07T14:28:24;13.13;;;11.13;;
10851;SDS011;5479;52.046;6.314;2023-05-07T14:30:53;11.85;;;10.65;;
10851;SDS011;5479;52.046;6.314;2023-05-07T14:33:22;13.43;;;11.45;;
10851;SDS011;5479;52.046;6.314;2023-05-07T14:35:51;13.60;;;12.13;;
10851;SDS011;5479;52.046;6.314;2023-05-07T14:38:19;12.75;;;11.27;;
10851;SDS011;5479;52.046;6.314;2023-05-07T14:40:49;12.75;;;11.32;;
10851;SDS011;5479;52.046;6.314;2023-05-07T14:43:16;13.60;;;12.13;;
10851;SDS011;5479;52.046;6.314;2023-05-07T14:45:45;15.82;;;12.52;;
10851;SDS011;5479;52.046;6.314;2023-05-07T14:48:13;13.00;;;11.10;;
10851;SDS011;5479;52.046;6.314;2023-05-07T14:50:44;15.48;;;11.00;;
10851;SDS011;5479;52.046;6.314;2023-05-07T14:53:16;13.45;;;11.35;;
10851;SDS011;5479;52.046;6.314;2023-05-07T14:55:47;13.80;;;12.15;;
10851;SDS011;5479;52.046;6.314;2023-05-07T14:58:16;15.20;;;12.20;;
10851;SDS011;5479;52.046;6.314;2023-05-07T15:00:44;13.95;;;12.32;;